sensor_id;sensor_type;location;lat;lon;timestamp;P1;durP1;ratioP1;P2;durP2;ratioP2
14125;SDS011;7141;49.484;11.242;2022-10-16T00:02:07;4.27;;;2.10;;
14125;SDS011;7141;49.484;11.242;2022-10-16T00:04:33;3.70;;;2.10;;
14125;SDS011;7141;49.484;11.242;2022-10-16T00:06:59;2.20;;;1.73;;
14125;SDS011;7141;49.484;11.242;2022-10-16T00:09:25;3.77;;;1.80;;
14125;SDS011;7141;49.484;11.242;2022-10-16T00:11:51;3.90;;;1.77;;
14125;SDS011;7141;49.484;11.242;2022-10-16T00:14:17;2.87;;;1.60;;
14125;SDS011;7141;49.484;11.242;2022-10-16T00:16:43;6.07;;;1.83;;
14125;SDS011;7141;49.484;11.242;2022-10-16T00:19:10;4.97;;;2.30;;
14125;SDS011;7141;49.484;11.242;2022-10-16T00:21:37;4.23;;;2.10;;
14125;SDS011;7141;49.484;11.242;2022-10-16T00:24:05;2.97;;;1.57;;
14125;SDS011;7141;49.484;11.242;2022-10-16T00:26:33;3.93;;;1.70;;
14125;SDS011;7141;49.484;11.242;2022-10-16T00:28:59;5.03;;;1.93;;
14125;SDS011;7141;49.484;11.242;2022-10-16T00:31:25;3.20;;;1.90;;
14125;SDS011;7141;49.484;11.242;2022-10-16T00:33:52;6.20;;;1.97;;
14125;SDS011;7141;49.484;11.242;2022-10-16T00:36:19;3.50;;;2.33;;
14125;SDS011;7141;49.484;11.242;2022-10-16T00:38:46;4.03;;;2.10;;
14125;SDS011;7141;49.484;11.242;2022-10-16T00:41:14;5.00;;;1.80;;
14125;SDS011;7141;49.484;11.242;2022-10-16T00:43:41;5.27;;;2.20;;
14125;SDS011;7141;49.484;11.242;2022-10-16T00:46:19;7.07;;;2.23;;
14125;SDS011;7141;49.484;11.242;2022-10-16T00:51:31;4.70;;;2.00;;
14125;SDS011;7141;49.484;11.242;2022-10-16T00:53:58;5.67;;;2.20;;
14125;SDS011;7141;49.484;11.242;2022-10-16T00:56:25;3.07;;;2.00;;
14125;SDS011;7141;49.484;11.242;2022-10-16T00:58:51;2.03;;;1.70;;
14125;SDS011;7141;49.484;11.242;2022-10-16T01:01:17;3.37;;;2.30;;
14125;SDS011;7141;49.484;11.242;2022-10-16T01:03:43;2.13;;;1.80;;
14125;SDS011;7141;49.484;11.242;2022-10-16T01:11:19;3.03;;;1.97;;
14125;SDS011;7141;49.484;11.242;2022-10-16T01:13:50;5.10;;;1.90;;
14125;SDS011;7141;49.484;11.242;2022-10-16T01:16:22;2.47;;;1.90;;
14125;SDS011;7141;49.484;11.242;2022-10-16T01:18:52;5.23;;;2.00;;
14125;SDS011;7141;49.484;11.242;2022-10-16T01:21:22;3.67;;;2.00;;
14125;SDS011;7141;49.484;11.242;2022-10-16T01:24:07;7.17;;;1.80;;
14125;SDS011;7141;49.484;11.242;2022-10-16T01:29:26;9.33;;;2.03;;
14125;SDS011;7141;49.484;11.242;2022-10-16T01:31:59;3.80;;;1.80;;
14125;SDS011;7141;49.484;11.242;2022-10-16T01:34:33;2.70;;;1.87;;
14125;SDS011;7141;49.484;11.242;2022-10-16T01:37:03;2.87;;;1.83;;
14125;SDS011;7141;49.484;11.242;2022-10-16T01:39:31;3.67;;;2.30;;
14125;SDS011;7141;49.484;11.242;2022-10-16T01:42:03;4.13;;;1.93;;
14125;SDS011;7141;49.484;11.242;2022-10-16T01:44:30;11.17;;;2.07;;
14125;SDS011;7141;49.484;11.242;2022-10-16T01:46:57;5.63;;;1.80;;
14125;SDS011;7141;49.484;11.242;2022-10-16T01:49:25;7.03;;;2.20;;
14125;SDS011;7141;49.484;11.242;2022-10-16T01:51:53;4.57;;;1.90;;
14125;SDS011;7141;49.484;11.242;2022-10-16T01:54:20;2.73;;;1.80;;
14125;SDS011;7141;49.484;11.242;2022-10-16T01:56:48;2.63;;;2.17;;
14125;SDS011;7141;49.484;11.242;2022-10-16T01:59:17;6.13;;;2.20;;
14125;SDS011;7141;49.484;11.242;2022-10-16T02:01:45;9.23;;;2.10;;
14125;SDS011;7141;49.484;11.242;2022-10-16T02:04:13;4.00;;;2.20;;
14125;SDS011;7141;49.484;11.242;2022-10-16T02:06:40;3.90;;;1.90;;
14125;SDS011;7141;49.484;11.242;2022-10-16T02:09:06;6.53;;;2.07;;
14125;SDS011;7141;49.484;11.242;2022-10-16T02:11:32;6.07;;;2.13;;
14125;SDS011;7141;49.484;11.242;2022-10-16T02:14:04;2.90;;;1.90;;
14125;SDS011;7141;49.484;11.242;2022-10-16T02:16:35;6.50;;;2.30;;
14125;SDS011;7141;49.484;11.242;2022-10-16T02:19:01;4.33;;;2.00;;
14125;SDS011;7141;49.484;11.242;2022-10-16T02:21:33;5.20;;;2.00;;
14125;SDS011;7141;49.484;11.242;2022-10-16T02:26:41;5.33;;;2.03;;
14125;SDS011;7141;49.484;11.242;2022-10-16T02:29:10;6.10;;;1.90;;
14125;SDS011;7141;49.484;11.242;2022-10-16T02:31:38;5.23;;;1.80;;
14125;SDS011;7141;49.484;11.242;2022-10-16T02:34:05;3.33;;;2.10;;
14125;SDS011;7141;49.484;11.242;2022-10-16T02:36:32;6.60;;;1.70;;
14125;SDS011;7141;49.484;11.242;2022-10-16T02:38:59;4.27;;;1.97;;
14125;SDS011;7141;49.484;11.242;2022-10-16T02:41:26;6.47;;;2.13;;
14125;SDS011;7141;49.484;11.242;2022-10-16T02:43:52;4.63;;;1.90;;
14125;SDS011;7141;49.484;11.242;2022-10-16T02:46:20;5.87;;;1.73;;
14125;SDS011;7141;49.484;11.242;2022-10-16T02:48:46;4.60;;;1.97;;
14125;SDS011;7141;49.484;11.242;2022-10-16T02:51:12;3.33;;;1.77;;
14125;SDS011;7141;49.484;11.242;2022-10-16T02:53:38;4.47;;;1.87;;
14125;SDS011;7141;49.484;11.242;2022-10-16T02:56:04;2.57;;;1.70;;
14125;SDS011;7141;49.484;11.242;2022-10-16T02:58:30;8.43;;;1.53;;
14125;SDS011;7141;49.484;11.242;2022-10-16T03:00:56;2.40;;;1.60;;
14125;SDS011;7141;49.484;11.242;2022-10-16T03:03:22;5.13;;;1.60;;
14125;SDS011;7141;49.484;11.242;2022-10-16T03:05:48;4.00;;;1.90;;
14125;SDS011;7141;49.484;11.242;2022-10-16T03:08:14;6.10;;;1.90;;
14125;SDS011;7141;49.484;11.242;2022-10-16T03:10:40;2.53;;;1.60;;
14125;SDS011;7141;49.484;11.242;2022-10-16T03:13:06;3.80;;;1.60;;
14125;SDS011;7141;49.484;11.242;2022-10-16T03:15:32;4.63;;;1.90;;
14125;SDS011;7141;49.484;11.242;2022-10-16T03:17:58;7.37;;;2.00;;
14125;SDS011;7141;49.484;11.242;2022-10-16T03:20:24;6.70;;;2.10;;
14125;SDS011;7141;49.484;11.242;2022-10-16T03:22:50;3.27;;;1.80;;
14125;SDS011;7141;49.484;11.242;2022-10-16T03:25:16;5.93;;;1.80;;
14125;SDS011;7141;49.484;11.242;2022-10-16T03:27:42;3.10;;;1.70;;
14125;SDS011;7141;49.484;11.242;2022-10-16T03:30:08;6.83;;;2.00;;
14125;SDS011;7141;49.484;11.242;2022-10-16T03:32:35;5.10;;;1.73;;
14125;SDS011;7141;49.484;11.242;2022-10-16T03:35:01;6.57;;;2.17;;
14125;SDS011;7141;49.484;11.242;2022-10-16T03:37:27;4.60;;;1.70;;
14125;SDS011;7141;49.484;11.242;2022-10-16T03:39:52;2.97;;;2.00;;
14125;SDS011;7141;49.484;11.242;2022-10-16T03:42:18;2.30;;;1.73;;
14125;SDS011;7141;49.484;11.242;2022-10-16T03:44:45;3.23;;;1.70;;
14125;SDS011;7141;49.484;11.242;2022-10-16T03:47:10;3.93;;;2.10;;
14125;SDS011;7141;49.484;11.242;2022-10-16T03:49:36;4.50;;;2.10;;
14125;SDS011;7141;49.484;11.242;2022-10-16T03:52:02;4.57;;;2.33;;
14125;SDS011;7141;49.484;11.242;2022-10-16T03:54:28;5.70;;;1.90;;
14125;SDS011;7141;49.484;11.242;2022-10-16T03:56:54;4.13;;;1.93;;
14125;SDS011;7141;49.484;11.242;2022-10-16T03:59:20;6.87;;;1.90;;
14125;SDS011;7141;49.484;11.242;2022-10-16T04:01:46;3.80;;;2.30;;
14125;SDS011;7141;49.484;11.242;2022-10-16T04:04:12;3.77;;;2.10;;
14125;SDS011;7141;49.484;11.242;2022-10-16T04:06:38;2.30;;;2.10;;
14125;SDS011;7141;49.484;11.242;2022-10-16T04:09:04;3.90;;;2.23;;
14125;SDS011;7141;49.484;11.242;2022-10-16T04:11:30;2.60;;;1.80;;
14125;SDS011;7141;49.484;11.242;2022-10-16T04:13:56;7.00;;;2.10;;
14125;SDS011;7141;49.484;11.242;2022-10-16T04:16:22;2.50;;;1.90;;
14125;SDS011;7141;49.484;11.242;2022-10-16T04:18:48;6.53;;;2.40;;
14125;SDS011;7141;49.484;11.242;2022-10-16T04:21:14;4.27;;;2.07;;
14125;SDS011;7141;49.484;11.242;2022-10-16T04:23:40;2.20;;;1.90;;
14125;SDS011;7141;49.484;11.242;2022-10-16T04:26:06;2.87;;;1.70;;
14125;SDS011;7141;49.484;11.242;2022-10-16T04:28:32;3.70;;;1.90;;
14125;SDS011;7141;49.484;11.242;2022-10-16T04:30:57;4.43;;;2.43;;
14125;SDS011;7141;49.484;11.242;2022-10-16T04:33:23;2.53;;;1.93;;
14125;SDS011;7141;49.484;11.242;2022-10-16T04:35:55;4.23;;;1.87;;
14125;SDS011;7141;49.484;11.242;2022-10-16T04:38:21;4.13;;;2.03;;
14125;SDS011;7141;49.484;11.242;2022-10-16T04:40:47;2.83;;;2.20;;
14125;SDS011;7141;49.484;11.242;2022-10-16T04:43:13;4.30;;;1.90;;
14125;SDS011;7141;49.484;11.242;2022-10-16T04:45:39;2.40;;;1.80;;
14125;SDS011;7141;49.484;11.242;2022-10-16T04:48:05;6.00;;;2.20;;
14125;SDS011;7141;49.484;11.242;2022-10-16T04:50:31;3.33;;;2.03;;
14125;SDS011;7141;49.484;11.242;2022-10-16T04:52:57;3.87;;;1.87;;
14125;SDS011;7141;49.484;11.242;2022-10-16T04:55:23;8.07;;;1.87;;
14125;SDS011;7141;49.484;11.242;2022-10-16T04:57:49;4.00;;;1.97;;
14125;SDS011;7141;49.484;11.242;2022-10-16T05:00:15;5.87;;;2.20;;
14125;SDS011;7141;49.484;11.242;2022-10-16T05:02:41;4.23;;;2.27;;
14125;SDS011;7141;49.484;11.242;2022-10-16T05:05:07;5.10;;;1.77;;
14125;SDS011;7141;49.484;11.242;2022-10-16T05:07:33;4.33;;;2.10;;
14125;SDS011;7141;49.484;11.242;2022-10-16T05:09:59;7.20;;;2.40;;
14125;SDS011;7141;49.484;11.242;2022-10-16T05:12:25;6.50;;;2.30;;
14125;SDS011;7141;49.484;11.242;2022-10-16T05:14:51;8.20;;;2.60;;
14125;SDS011;7141;49.484;11.242;2022-10-16T05:17:17;4.23;;;2.43;;
14125;SDS011;7141;49.484;11.242;2022-10-16T05:19:43;4.93;;;2.03;;
14125;SDS011;7141;49.484;11.242;2022-10-16T05:22:09;5.97;;;2.40;;
14125;SDS011;7141;49.484;11.242;2022-10-16T05:24:35;5.40;;;2.43;;
14125;SDS011;7141;49.484;11.242;2022-10-16T05:27:01;4.53;;;2.10;;
14125;SDS011;7141;49.484;11.242;2022-10-16T05:29:27;3.23;;;2.20;;
14125;SDS011;7141;49.484;11.242;2022-10-16T05:31:53;5.73;;;2.53;;
14125;SDS011;7141;49.484;11.242;2022-10-16T05:34:19;4.67;;;2.13;;
14125;SDS011;7141;49.484;11.242;2022-10-16T05:36:45;3.67;;;2.30;;
14125;SDS011;7141;49.484;11.242;2022-10-16T05:39:11;5.83;;;2.30;;
14125;SDS011;7141;49.484;11.242;2022-10-16T05:41:39;3.43;;;2.10;;
14125;SDS011;7141;49.484;11.242;2022-10-16T05:44:05;4.87;;;2.20;;
14125;SDS011;7141;49.484;11.242;2022-10-16T05:46:32;5.40;;;2.30;;
14125;SDS011;7141;49.484;11.242;2022-10-16T05:48:58;7.30;;;2.37;;
14125;SDS011;7141;49.484;11.242;2022-10-16T05:51:24;6.17;;;2.30;;
14125;SDS011;7141;49.484;11.242;2022-10-16T05:53:50;5.37;;;2.67;;
14125;SDS011;7141;49.484;11.242;2022-10-16T05:56:16;11.33;;;8.17;;
14125;SDS011;7141;49.484;11.242;2022-10-16T05:58:41;7.20;;;6.53;;
14125;SDS011;7141;49.484;11.242;2022-10-16T06:01:16;6.40;;;4.10;;
14125;SDS011;7141;49.484;11.242;2022-10-16T06:03:42;5.93;;;3.03;;
14125;SDS011;7141;49.484;11.242;2022-10-16T06:06:11;7.93;;;3.60;;
14125;SDS011;7141;49.484;11.242;2022-10-16T06:08:38;8.33;;;3.60;;
14125;SDS011;7141;49.484;11.242;2022-10-16T06:11:06;5.90;;;3.17;;
14125;SDS011;7141;49.484;11.242;2022-10-16T06:13:32;3.63;;;2.50;;
14125;SDS011;7141;49.484;11.242;2022-10-16T06:15:59;4.97;;;2.47;;
14125;SDS011;7141;49.484;11.242;2022-10-16T06:18:25;3.33;;;2.87;;
14125;SDS011;7141;49.484;11.242;2022-10-16T06:20:51;7.37;;;3.07;;
14125;SDS011;7141;49.484;11.242;2022-10-16T06:23:17;6.53;;;2.40;;
14125;SDS011;7141;49.484;11.242;2022-10-16T06:25:43;8.70;;;2.60;;
14125;SDS011;7141;49.484;11.242;2022-10-16T06:28:09;5.03;;;2.50;;
14125;SDS011;7141;49.484;11.242;2022-10-16T06:30:35;6.10;;;2.37;;
14125;SDS011;7141;49.484;11.242;2022-10-16T06:33:01;8.13;;;2.40;;
14125;SDS011;7141;49.484;11.242;2022-10-16T06:35:27;4.90;;;2.40;;
14125;SDS011;7141;49.484;11.242;2022-10-16T06:37:54;3.63;;;2.60;;
14125;SDS011;7141;49.484;11.242;2022-10-16T06:40:20;5.40;;;3.30;;
14125;SDS011;7141;49.484;11.242;2022-10-16T06:42:46;6.60;;;3.23;;
14125;SDS011;7141;49.484;11.242;2022-10-16T06:45:12;9.00;;;3.10;;
14125;SDS011;7141;49.484;11.242;2022-10-16T06:47:38;3.57;;;2.67;;
14125;SDS011;7141;49.484;11.242;2022-10-16T06:50:04;7.43;;;2.90;;
14125;SDS011;7141;49.484;11.242;2022-10-16T06:52:31;4.77;;;2.67;;
14125;SDS011;7141;49.484;11.242;2022-10-16T06:54:58;3.27;;;2.40;;
14125;SDS011;7141;49.484;11.242;2022-10-16T06:57:24;6.57;;;2.43;;
14125;SDS011;7141;49.484;11.242;2022-10-16T06:59:50;2.73;;;2.33;;
14125;SDS011;7141;49.484;11.242;2022-10-16T07:02:16;5.17;;;2.20;;
14125;SDS011;7141;49.484;11.242;2022-10-16T07:04:42;4.33;;;2.17;;
14125;SDS011;7141;49.484;11.242;2022-10-16T07:07:08;4.03;;;2.43;;
14125;SDS011;7141;49.484;11.242;2022-10-16T07:09:34;4.53;;;2.23;;
14125;SDS011;7141;49.484;11.242;2022-10-16T07:12:00;4.47;;;2.37;;
14125;SDS011;7141;49.484;11.242;2022-10-16T07:14:26;3.87;;;2.27;;
14125;SDS011;7141;49.484;11.242;2022-10-16T07:16:52;3.70;;;2.23;;
14125;SDS011;7141;49.484;11.242;2022-10-16T07:19:18;4.33;;;2.23;;
14125;SDS011;7141;49.484;11.242;2022-10-16T07:21:44;3.50;;;2.17;;
14125;SDS011;7141;49.484;11.242;2022-10-16T07:24:11;3.93;;;1.93;;
14125;SDS011;7141;49.484;11.242;2022-10-16T07:26:38;3.20;;;2.07;;
14125;SDS011;7141;49.484;11.242;2022-10-16T07:29:05;4.67;;;2.20;;
14125;SDS011;7141;49.484;11.242;2022-10-16T07:31:31;8.57;;;2.30;;
14125;SDS011;7141;49.484;11.242;2022-10-16T07:33:57;5.43;;;2.23;;
14125;SDS011;7141;49.484;11.242;2022-10-16T07:36:23;6.13;;;2.20;;
14125;SDS011;7141;49.484;11.242;2022-10-16T07:38:49;2.63;;;2.00;;
14125;SDS011;7141;49.484;11.242;2022-10-16T07:41:16;3.23;;;2.20;;
14125;SDS011;7141;49.484;11.242;2022-10-16T07:43:46;4.23;;;2.20;;
14125;SDS011;7141;49.484;11.242;2022-10-16T07:46:13;6.40;;;2.10;;
14125;SDS011;7141;49.484;11.242;2022-10-16T07:48:39;6.30;;;3.00;;
14125;SDS011;7141;49.484;11.242;2022-10-16T07:51:06;4.70;;;2.17;;
14125;SDS011;7141;49.484;11.242;2022-10-16T07:53:33;3.07;;;2.13;;
14125;SDS011;7141;49.484;11.242;2022-10-16T07:55:59;6.60;;;2.60;;
14125;SDS011;7141;49.484;11.242;2022-10-16T07:58:26;4.23;;;2.40;;
14125;SDS011;7141;49.484;11.242;2022-10-16T08:00:52;2.77;;;2.07;;
14125;SDS011;7141;49.484;11.242;2022-10-16T08:03:18;3.73;;;2.20;;
14125;SDS011;7141;49.484;11.242;2022-10-16T08:05:44;8.00;;;2.27;;
14125;SDS011;7141;49.484;11.242;2022-10-16T08:08:13;5.93;;;2.27;;
14125;SDS011;7141;49.484;11.242;2022-10-16T08:10:39;5.30;;;2.20;;
14125;SDS011;7141;49.484;11.242;2022-10-16T08:13:06;5.93;;;2.07;;
14125;SDS011;7141;49.484;11.242;2022-10-16T08:15:32;2.37;;;2.00;;
14125;SDS011;7141;49.484;11.242;2022-10-16T08:17:58;4.73;;;2.30;;
14125;SDS011;7141;49.484;11.242;2022-10-16T08:20:25;3.40;;;2.20;;
14125;SDS011;7141;49.484;11.242;2022-10-16T08:22:52;5.20;;;2.07;;
14125;SDS011;7141;49.484;11.242;2022-10-16T08:25:19;7.80;;;2.80;;
14125;SDS011;7141;49.484;11.242;2022-10-16T08:27:45;5.90;;;2.70;;
14125;SDS011;7141;49.484;11.242;2022-10-16T08:30:11;5.03;;;2.40;;
14125;SDS011;7141;49.484;11.242;2022-10-16T08:32:37;5.13;;;2.03;;
14125;SDS011;7141;49.484;11.242;2022-10-16T08:35:03;2.77;;;1.90;;
14125;SDS011;7141;49.484;11.242;2022-10-16T08:37:30;4.33;;;1.90;;
14125;SDS011;7141;49.484;11.242;2022-10-16T08:39:56;6.83;;;1.93;;
14125;SDS011;7141;49.484;11.242;2022-10-16T08:42:29;3.20;;;1.90;;
14125;SDS011;7141;49.484;11.242;2022-10-16T08:47:39;2.97;;;2.07;;
14125;SDS011;7141;49.484;11.242;2022-10-16T08:50:10;2.90;;;2.20;;
14125;SDS011;7141;49.484;11.242;2022-10-16T08:52:39;3.77;;;2.10;;
14125;SDS011;7141;49.484;11.242;2022-10-16T08:55:05;5.33;;;2.20;;
14125;SDS011;7141;49.484;11.242;2022-10-16T08:57:32;3.63;;;2.00;;
14125;SDS011;7141;49.484;11.242;2022-10-16T08:59:59;5.33;;;2.03;;
14125;SDS011;7141;49.484;11.242;2022-10-16T09:02:45;5.47;;;1.53;;
14125;SDS011;7141;49.484;11.242;2022-10-16T09:12:55;6.10;;;2.50;;
14125;SDS011;7141;49.484;11.242;2022-10-16T09:17:59;5.60;;;3.53;;
14125;SDS011;7141;49.484;11.242;2022-10-16T09:25:29;6.97;;;4.10;;
14125;SDS011;7141;49.484;11.242;2022-10-16T09:27:56;3.27;;;2.40;;
14125;SDS011;7141;49.484;11.242;2022-10-16T09:30:22;8.27;;;2.90;;
14125;SDS011;7141;49.484;11.242;2022-10-16T09:32:49;5.57;;;2.67;;
14125;SDS011;7141;49.484;11.242;2022-10-16T09:35:22;3.17;;;2.40;;
14125;SDS011;7141;49.484;11.242;2022-10-16T09:37:50;7.90;;;2.10;;
14125;SDS011;7141;49.484;11.242;2022-10-16T09:40:38;3.10;;;2.20;;
14125;SDS011;7141;49.484;11.242;2022-10-16T09:45:29;3.77;;;1.70;;
14125;SDS011;7141;49.484;11.242;2022-10-16T09:47:55;5.07;;;1.80;;
14125;SDS011;7141;49.484;11.242;2022-10-16T09:50:22;10.13;;;1.87;;
14125;SDS011;7141;49.484;11.242;2022-10-16T09:52:49;2.43;;;1.53;;
14125;SDS011;7141;49.484;11.242;2022-10-16T09:55:16;4.37;;;1.67;;
14125;SDS011;7141;49.484;11.242;2022-10-16T09:57:52;5.93;;;1.80;;
14125;SDS011;7141;49.484;11.242;2022-10-16T10:00:19;3.90;;;1.67;;
14125;SDS011;7141;49.484;11.242;2022-10-16T10:02:45;3.30;;;1.50;;
14125;SDS011;7141;49.484;11.242;2022-10-16T10:05:18;5.20;;;1.60;;
14125;SDS011;7141;49.484;11.242;2022-10-16T10:07:45;3.60;;;2.40;;
14125;SDS011;7141;49.484;11.242;2022-10-16T10:10:24;4.53;;;2.40;;
14125;SDS011;7141;49.484;11.242;2022-10-16T10:12:51;7.50;;;2.53;;
14125;SDS011;7141;49.484;11.242;2022-10-16T10:15:17;3.30;;;2.23;;
14125;SDS011;7141;49.484;11.242;2022-10-16T10:17:47;5.17;;;3.17;;
14125;SDS011;7141;49.484;11.242;2022-10-16T10:22:49;5.93;;;4.93;;
14125;SDS011;7141;49.484;11.242;2022-10-16T10:25:19;4.87;;;3.77;;
14125;SDS011;7141;49.484;11.242;2022-10-16T10:35:52;2.40;;;1.90;;
14125;SDS011;7141;49.484;11.242;2022-10-16T10:40:59;5.40;;;1.90;;
14125;SDS011;7141;49.484;11.242;2022-10-16T10:46:04;3.33;;;1.73;;
14125;SDS011;7141;49.484;11.242;2022-10-16T10:51:08;3.33;;;1.63;;
14125;SDS011;7141;49.484;11.242;2022-10-16T11:01:49;3.57;;;1.40;;
14125;SDS011;7141;49.484;11.242;2022-10-16T11:09:36;4.20;;;1.50;;
14125;SDS011;7141;49.484;11.242;2022-10-16T11:17:04;3.87;;;1.90;;
14125;SDS011;7141;49.484;11.242;2022-10-16T11:22:33;3.77;;;1.60;;
14125;SDS011;7141;49.484;11.242;2022-10-16T11:30:19;4.27;;;1.93;;
14125;SDS011;7141;49.484;11.242;2022-10-16T11:37:56;4.40;;;1.77;;
14125;SDS011;7141;49.484;11.242;2022-10-16T11:40:33;5.47;;;1.50;;
14125;SDS011;7141;49.484;11.242;2022-10-16T11:43:34;3.80;;;2.10;;
14125;SDS011;7141;49.484;11.242;2022-10-16T11:45:52;4.03;;;1.87;;
14125;SDS011;7141;49.484;11.242;2022-10-16T11:50:53;2.27;;;1.40;;
14125;SDS011;7141;49.484;11.242;2022-10-16T11:55:51;7.63;;;2.67;;
14125;SDS011;7141;49.484;11.242;2022-10-16T11:58:27;3.40;;;2.90;;
14125;SDS011;7141;49.484;11.242;2022-10-16T12:03:39;2.13;;;1.33;;
14125;SDS011;7141;49.484;11.242;2022-10-16T12:06:22;1.43;;;1.33;;
14125;SDS011;7141;49.484;11.242;2022-10-16T12:08:51;1.53;;;1.43;;
14125;SDS011;7141;49.484;11.242;2022-10-16T12:16:31;3.07;;;1.40;;
14125;SDS011;7141;49.484;11.242;2022-10-16T12:19:11;6.60;;;1.80;;
14125;SDS011;7141;49.484;11.242;2022-10-16T12:21:37;3.90;;;1.60;;
14125;SDS011;7141;49.484;11.242;2022-10-16T12:24:03;2.13;;;1.40;;
14125;SDS011;7141;49.484;11.242;2022-10-16T12:26:31;2.10;;;1.50;;
14125;SDS011;7141;49.484;11.242;2022-10-16T12:29:11;6.07;;;1.80;;
14125;SDS011;7141;49.484;11.242;2022-10-16T12:31:45;4.97;;;2.23;;
14125;SDS011;7141;49.484;11.242;2022-10-16T12:34:20;4.67;;;1.47;;
14125;SDS011;7141;49.484;11.242;2022-10-16T12:36:47;3.60;;;1.83;;
14125;SDS011;7141;49.484;11.242;2022-10-16T12:39:20;7.70;;;1.87;;
14125;SDS011;7141;49.484;11.242;2022-10-16T12:41:47;2.27;;;1.50;;
14125;SDS011;7141;49.484;11.242;2022-10-16T12:44:25;2.60;;;1.40;;
14125;SDS011;7141;49.484;11.242;2022-10-16T12:46:51;1.83;;;1.57;;
14125;SDS011;7141;49.484;11.242;2022-10-16T12:49:21;2.23;;;1.40;;
14125;SDS011;7141;49.484;11.242;2022-10-16T12:51:49;3.27;;;1.53;;
14125;SDS011;7141;49.484;11.242;2022-10-16T13:02:14;4.10;;;1.70;;
14125;SDS011;7141;49.484;11.242;2022-10-16T13:04:51;3.57;;;1.60;;
14125;SDS011;7141;49.484;11.242;2022-10-16T13:17:49;2.40;;;1.60;;
14125;SDS011;7141;49.484;11.242;2022-10-16T13:20:26;4.30;;;1.63;;
14125;SDS011;7141;49.484;11.242;2022-10-16T13:27:51;4.33;;;1.80;;
14125;SDS011;7141;49.484;11.242;2022-10-16T13:30:22;2.23;;;1.57;;
14125;SDS011;7141;49.484;11.242;2022-10-16T13:32:50;1.70;;;1.50;;
14125;SDS011;7141;49.484;11.242;2022-10-16T13:35:19;5.33;;;1.77;;
14125;SDS011;7141;49.484;11.242;2022-10-16T13:37:45;2.43;;;1.40;;
14125;SDS011;7141;49.484;11.242;2022-10-16T13:40:22;2.97;;;1.60;;
14125;SDS011;7141;49.484;11.242;2022-10-16T13:42:48;1.40;;;1.30;;
14125;SDS011;7141;49.484;11.242;2022-10-16T13:45:22;3.00;;;1.60;;
14125;SDS011;7141;49.484;11.242;2022-10-16T13:47:50;3.80;;;1.77;;
14125;SDS011;7141;49.484;11.242;2022-10-16T13:50:16;2.83;;;1.47;;
14125;SDS011;7141;49.484;11.242;2022-10-16T13:52:43;4.33;;;1.30;;
14125;SDS011;7141;49.484;11.242;2022-10-16T13:55:12;2.67;;;1.63;;
14125;SDS011;7141;49.484;11.242;2022-10-16T13:57:38;4.73;;;1.50;;
14125;SDS011;7141;49.484;11.242;2022-10-16T14:00:24;5.80;;;1.60;;
14125;SDS011;7141;49.484;11.242;2022-10-16T14:03:01;1.33;;;1.23;;
14125;SDS011;7141;49.484;11.242;2022-10-16T14:05:28;3.70;;;1.60;;
14125;SDS011;7141;49.484;11.242;2022-10-16T14:07:54;5.97;;;1.63;;
14125;SDS011;7141;49.484;11.242;2022-10-16T14:10:28;2.77;;;1.33;;
14125;SDS011;7141;49.484;11.242;2022-10-16T14:12:59;4.10;;;1.60;;
14125;SDS011;7141;49.484;11.242;2022-10-16T14:15:25;4.37;;;1.60;;
14125;SDS011;7141;49.484;11.242;2022-10-16T14:17:51;3.10;;;1.50;;
14125;SDS011;7141;49.484;11.242;2022-10-16T14:20:18;4.07;;;1.70;;
14125;SDS011;7141;49.484;11.242;2022-10-16T14:22:45;3.00;;;1.73;;
14125;SDS011;7141;49.484;11.242;2022-10-16T14:27:57;5.97;;;1.60;;
14125;SDS011;7141;49.484;11.242;2022-10-16T14:30:24;5.33;;;1.77;;
14125;SDS011;7141;49.484;11.242;2022-10-16T14:32:54;1.97;;;1.47;;
14125;SDS011;7141;49.484;11.242;2022-10-16T14:37:53;5.20;;;1.33;;
14125;SDS011;7141;49.484;11.242;2022-10-16T14:40:20;1.57;;;1.37;;
14125;SDS011;7141;49.484;11.242;2022-10-16T14:42:47;7.83;;;1.80;;
14125;SDS011;7141;49.484;11.242;2022-10-16T14:45:15;2.53;;;1.40;;
14125;SDS011;7141;49.484;11.242;2022-10-16T14:47:51;3.60;;;1.87;;
14125;SDS011;7141;49.484;11.242;2022-10-16T14:50:18;2.23;;;1.60;;
14125;SDS011;7141;49.484;11.242;2022-10-16T14:52:44;5.33;;;1.87;;
14125;SDS011;7141;49.484;11.242;2022-10-16T14:55:10;3.60;;;1.90;;
14125;SDS011;7141;49.484;11.242;2022-10-16T14:57:36;2.80;;;1.80;;
14125;SDS011;7141;49.484;11.242;2022-10-16T15:00:06;3.67;;;1.87;;
14125;SDS011;7141;49.484;11.242;2022-10-16T15:02:35;4.50;;;1.90;;
14125;SDS011;7141;49.484;11.242;2022-10-16T15:05:23;6.93;;;1.60;;
14125;SDS011;7141;49.484;11.242;2022-10-16T15:07:48;4.43;;;2.20;;
14125;SDS011;7141;49.484;11.242;2022-10-16T15:10:15;4.10;;;2.70;;
14125;SDS011;7141;49.484;11.242;2022-10-16T15:12:42;3.87;;;2.10;;
14125;SDS011;7141;49.484;11.242;2022-10-16T15:17:37;4.60;;;1.90;;
14125;SDS011;7141;49.484;11.242;2022-10-16T15:20:03;5.37;;;2.20;;
14125;SDS011;7141;49.484;11.242;2022-10-16T15:22:29;5.20;;;1.97;;
14125;SDS011;7141;49.484;11.242;2022-10-16T15:24:55;1.93;;;1.70;;
14125;SDS011;7141;49.484;11.242;2022-10-16T15:27:21;4.03;;;1.80;;
14125;SDS011;7141;49.484;11.242;2022-10-16T15:29:48;4.60;;;2.10;;
14125;SDS011;7141;49.484;11.242;2022-10-16T15:32:14;2.33;;;1.60;;
14125;SDS011;7141;49.484;11.242;2022-10-16T15:34:40;8.27;;;2.37;;
14125;SDS011;7141;49.484;11.242;2022-10-16T15:37:06;4.43;;;2.30;;
14125;SDS011;7141;49.484;11.242;2022-10-16T15:39:32;5.57;;;2.40;;
14125;SDS011;7141;49.484;11.242;2022-10-16T15:41:58;7.33;;;3.33;;
14125;SDS011;7141;49.484;11.242;2022-10-16T15:44:24;8.17;;;2.77;;
14125;SDS011;7141;49.484;11.242;2022-10-16T15:46:54;12.90;;;6.37;;
14125;SDS011;7141;49.484;11.242;2022-10-16T15:49:21;10.10;;;5.23;;
14125;SDS011;7141;49.484;11.242;2022-10-16T15:51:47;7.47;;;4.90;;
14125;SDS011;7141;49.484;11.242;2022-10-16T15:54:13;9.57;;;3.17;;
14125;SDS011;7141;49.484;11.242;2022-10-16T15:56:40;9.30;;;2.67;;
14125;SDS011;7141;49.484;11.242;2022-10-16T15:59:06;4.07;;;2.37;;
14125;SDS011;7141;49.484;11.242;2022-10-16T16:01:33;6.33;;;2.93;;
14125;SDS011;7141;49.484;11.242;2022-10-16T16:03:59;5.97;;;2.80;;
14125;SDS011;7141;49.484;11.242;2022-10-16T16:06:25;4.10;;;2.87;;
14125;SDS011;7141;49.484;11.242;2022-10-16T16:08:51;7.30;;;2.73;;
14125;SDS011;7141;49.484;11.242;2022-10-16T16:11:18;6.37;;;2.40;;
14125;SDS011;7141;49.484;11.242;2022-10-16T16:13:44;6.70;;;2.60;;
14125;SDS011;7141;49.484;11.242;2022-10-16T16:16:11;5.63;;;2.30;;
14125;SDS011;7141;49.484;11.242;2022-10-16T16:18:38;4.00;;;3.00;;
14125;SDS011;7141;49.484;11.242;2022-10-16T16:21:04;7.77;;;2.27;;
14125;SDS011;7141;49.484;11.242;2022-10-16T16:23:30;2.97;;;2.27;;
14125;SDS011;7141;49.484;11.242;2022-10-16T16:26:10;5.13;;;2.43;;
14125;SDS011;7141;49.484;11.242;2022-10-16T16:28:37;5.47;;;3.50;;
14125;SDS011;7141;49.484;11.242;2022-10-16T16:31:03;3.73;;;2.60;;
14125;SDS011;7141;49.484;11.242;2022-10-16T16:33:29;6.70;;;2.73;;
14125;SDS011;7141;49.484;11.242;2022-10-16T16:36:00;6.07;;;2.90;;
14125;SDS011;7141;49.484;11.242;2022-10-16T16:38:26;3.43;;;2.80;;
14125;SDS011;7141;49.484;11.242;2022-10-16T16:40:53;10.87;;;4.20;;
14125;SDS011;7141;49.484;11.242;2022-10-16T16:43:22;6.30;;;3.30;;
14125;SDS011;7141;49.484;11.242;2022-10-16T16:45:48;5.13;;;3.07;;
14125;SDS011;7141;49.484;11.242;2022-10-16T16:48:14;6.40;;;2.67;;
14125;SDS011;7141;49.484;11.242;2022-10-16T16:50:40;6.33;;;3.40;;
14125;SDS011;7141;49.484;11.242;2022-10-16T16:53:06;5.13;;;3.20;;
14125;SDS011;7141;49.484;11.242;2022-10-16T16:55:32;6.13;;;2.90;;
14125;SDS011;7141;49.484;11.242;2022-10-16T16:57:58;4.63;;;3.60;;
14125;SDS011;7141;49.484;11.242;2022-10-16T17:00:25;4.80;;;3.07;;